Airfield :
LOGIN :

Register | Disclaimer

   EN    FR    IT 

 










Legend :    VFR   Marginal VFR   IFR   Intensive IFR   Very Intensive IFR
Visi :
Ceiling :
>= 8 km
>= 3000ft
5 to 8 km
1000 to 3000 ft
1500m to 5 km
500 to 1000 ft
800 to 1500m
200 to 500 ft
< 800m
< 200 ft
Symbols :   Thunderstorms  Fog  Heavy snow  Heavy precipitations  Wind > 20 kt
SIGMETs :     Misc.  Thunderstorms  Icing  Turbulence  Mountain Waves  Volcanic Ashes







- Airport Elevation : 1000 ft
- IATA code : PEV


LHPP - Pécs Pogany

CURRENT METAR :
  • 201445Z 08005KT 3000 BR OVC010 04/04 Q1011

EXPIRED METARs :
  • 201415Z 08007KT 3000 BR OVC010 04/04 Q1010
  • 201345Z 07007KT 3000 BR OVC010 04/04 Q1010
  • 201315Z 07007KT 3000 BR OVC010 04/03 Q1010
  • 201245Z 07007KT 4000 BR OVC016 04/03 Q1011
  • 201215Z 08007KT 4000 BR OVC016 04/03 Q1011

TAF TAF LHPP
Valid from the 20 at 15:00 until the 21 at 00:00 UTC


201415Z 2015/2024 07007KT 3000 BR OVC010
TEMPO 2015/2024 1500 -DZ BR OVC005
BECMG 2021/2024 VRB02KT
No reported NOTAMs for that airfield.



MET'MAP, your aeronautical weather chart ! - Copyright ORBIFLY December 2007 - Disclaimer

ORBIFLY MET'MAP TEAM :

Programming & Development : Alexandra Zaïnal
Concept & Development : Baudouin d'Aumeries
Co-Development & Prog : Marc-Olivier Méhu
Technical & hardware support : Manuel Goepfert

Contact : metmap@orbifly.com




SOURCES & CREDITS :

   NOAA